sensor_id;sensor_type;location;lat;lon;timestamp;P1;durP1;ratioP1;P2;durP2;ratioP2
11921;SDS011;6021;51.182;3.160;2023-03-14T00:02:00;5.83;;;1.93;;
11921;SDS011;6021;51.182;3.160;2023-03-14T00:04:28;7.33;;;2.23;;
11921;SDS011;6021;51.182;3.160;2023-03-14T00:06:59;5.70;;;1.70;;
11921;SDS011;6021;51.182;3.160;2023-03-14T00:09:30;6.47;;;1.83;;
11921;SDS011;6021;51.182;3.160;2023-03-14T00:12:03;7.43;;;2.10;;
11921;SDS011;6021;51.182;3.160;2023-03-14T00:14:40;6.60;;;2.13;;
11921;SDS011;6021;51.182;3.160;2023-03-14T00:17:16;7.77;;;2.07;;
11921;SDS011;6021;51.182;3.160;2023-03-14T00:19:47;7.53;;;1.90;;
11921;SDS011;6021;51.182;3.160;2023-03-14T00:22:26;7.43;;;1.90;;
11921;SDS011;6021;51.182;3.160;2023-03-14T00:24:59;6.60;;;1.90;;
11921;SDS011;6021;51.182;3.160;2023-03-14T00:27:29;5.70;;;1.83;;
11921;SDS011;6021;51.182;3.160;2023-03-14T00:29:59;4.23;;;1.87;;
11921;SDS011;6021;51.182;3.160;2023-03-14T00:32:35;7.20;;;2.10;;
11921;SDS011;6021;51.182;3.160;2023-03-14T00:35:05;6.07;;;2.10;;
11921;SDS011;6021;51.182;3.160;2023-03-14T00:37:35;9.20;;;2.23;;
11921;SDS011;6021;51.182;3.160;2023-03-14T00:40:04;7.27;;;2.20;;
11921;SDS011;6021;51.182;3.160;2023-03-14T00:42:43;5.97;;;2.03;;
11921;SDS011;6021;51.182;3.160;2023-03-14T00:45:08;5.87;;;2.10;;
11921;SDS011;6021;51.182;3.160;2023-03-14T00:47:37;9.37;;;2.53;;
11921;SDS011;6021;51.182;3.160;2023-03-14T00:50:06;8.27;;;2.50;;
11921;SDS011;6021;51.182;3.160;2023-03-14T00:52:41;8.43;;;2.53;;
11921;SDS011;6021;51.182;3.160;2023-03-14T00:55:11;9.13;;;2.50;;
11921;SDS011;6021;51.182;3.160;2023-03-14T00:57:41;7.80;;;2.50;;
11921;SDS011;6021;51.182;3.160;2023-03-14T01:00:16;7.17;;;2.20;;
11921;SDS011;6021;51.182;3.160;2023-03-14T01:02:47;7.73;;;2.40;;
11921;SDS011;6021;51.182;3.160;2023-03-14T01:05:22;9.07;;;2.47;;
11921;SDS011;6021;51.182;3.160;2023-03-14T01:08:13;8.47;;;2.30;;
11921;SDS011;6021;51.182;3.160;2023-03-14T01:10:48;9.00;;;2.80;;
11921;SDS011;6021;51.182;3.160;2023-03-14T01:13:16;8.30;;;2.90;;
11921;SDS011;6021;51.182;3.160;2023-03-14T01:15:53;9.33;;;2.70;;
11921;SDS011;6021;51.182;3.160;2023-03-14T01:18:25;9.40;;;2.60;;
11921;SDS011;6021;51.182;3.160;2023-03-14T01:21:28;10.07;;;2.80;;
11921;SDS011;6021;51.182;3.160;2023-03-14T01:24:10;9.17;;;2.87;;
11921;SDS011;6021;51.182;3.160;2023-03-14T01:26:55;8.80;;;2.60;;
11921;SDS011;6021;51.182;3.160;2023-03-14T01:29:35;10.23;;;2.77;;
11921;SDS011;6021;51.182;3.160;2023-03-14T01:32:16;9.53;;;2.40;;
11921;SDS011;6021;51.182;3.160;2023-03-14T01:34:54;11.83;;;2.80;;
11921;SDS011;6021;51.182;3.160;2023-03-14T01:37:30;12.47;;;2.57;;
11921;SDS011;6021;51.182;3.160;2023-03-14T01:40:18;9.63;;;2.73;;
11921;SDS011;6021;51.182;3.160;2023-03-14T01:42:33;8.50;;;2.63;;
11921;SDS011;6021;51.182;3.160;2023-03-14T01:45:02;7.73;;;2.23;;
11921;SDS011;6021;51.182;3.160;2023-03-14T01:47:41;6.57;;;2.30;;
11921;SDS011;6021;51.182;3.160;2023-03-14T01:50:23;8.40;;;2.60;;
11921;SDS011;6021;51.182;3.160;2023-03-14T01:53:10;6.93;;;2.17;;
11921;SDS011;6021;51.182;3.160;2023-03-14T01:55:46;8.00;;;2.33;;
11921;SDS011;6021;51.182;3.160;2023-03-14T01:58:29;8.10;;;2.33;;
11921;SDS011;6021;51.182;3.160;2023-03-14T02:01:05;8.20;;;2.50;;
11921;SDS011;6021;51.182;3.160;2023-03-14T02:03:44;7.57;;;2.13;;
11921;SDS011;6021;51.182;3.160;2023-03-14T02:06:19;8.77;;;2.30;;
11921;SDS011;6021;51.182;3.160;2023-03-14T02:08:55;7.57;;;2.10;;
11921;SDS011;6021;51.182;3.160;2023-03-14T02:11:34;7.00;;;2.10;;
11921;SDS011;6021;51.182;3.160;2023-03-14T02:14:25;5.80;;;2.00;;
11921;SDS011;6021;51.182;3.160;2023-03-14T02:17:04;4.70;;;1.77;;
11921;SDS011;6021;51.182;3.160;2023-03-14T02:22:37;6.20;;;1.80;;
11921;SDS011;6021;51.182;3.160;2023-03-14T02:28:21;6.83;;;1.90;;
11921;SDS011;6021;51.182;3.160;2023-03-14T02:30:43;5.60;;;1.80;;
11921;SDS011;6021;51.182;3.160;2023-03-14T02:33:20;4.27;;;2.13;;
11921;SDS011;6021;51.182;3.160;2023-03-14T02:35:51;5.67;;;1.80;;
11921;SDS011;6021;51.182;3.160;2023-03-14T02:41:21;4.17;;;1.50;;
11921;SDS011;6021;51.182;3.160;2023-03-14T02:43:50;3.00;;;1.33;;
11921;SDS011;6021;51.182;3.160;2023-03-14T02:46:20;2.77;;;1.40;;
11921;SDS011;6021;51.182;3.160;2023-03-14T02:49:08;3.30;;;1.10;;
11921;SDS011;6021;51.182;3.160;2023-03-14T02:51:49;3.47;;;1.57;;
11921;SDS011;6021;51.182;3.160;2023-03-14T02:54:18;3.50;;;1.40;;
11921;SDS011;6021;51.182;3.160;2023-03-14T02:56:58;3.27;;;1.40;;
11921;SDS011;6021;51.182;3.160;2023-03-14T02:59:31;4.20;;;1.70;;
11921;SDS011;6021;51.182;3.160;2023-03-14T03:02:05;3.67;;;1.60;;
11921;SDS011;6021;51.182;3.160;2023-03-14T03:04:41;4.40;;;1.40;;
11921;SDS011;6021;51.182;3.160;2023-03-14T03:07:15;1.90;;;1.33;;
11921;SDS011;6021;51.182;3.160;2023-03-14T03:09:52;2.07;;;1.27;;
11921;SDS011;6021;51.182;3.160;2023-03-14T03:12:21;3.37;;;1.37;;
11921;SDS011;6021;51.182;3.160;2023-03-14T03:15:04;3.60;;;1.40;;
11921;SDS011;6021;51.182;3.160;2023-03-14T03:17:46;3.20;;;1.30;;
11921;SDS011;6021;51.182;3.160;2023-03-14T03:20:21;3.37;;;1.37;;
11921;SDS011;6021;51.182;3.160;2023-03-14T03:22:55;3.53;;;1.23;;
11921;SDS011;6021;51.182;3.160;2023-03-14T03:28:00;2.27;;;1.33;;
11921;SDS011;6021;51.182;3.160;2023-03-14T03:30:41;3.23;;;1.30;;
11921;SDS011;6021;51.182;3.160;2023-03-14T03:33:13;2.77;;;1.43;;
11921;SDS011;6021;51.182;3.160;2023-03-14T03:35:49;2.53;;;0.97;;
11921;SDS011;6021;51.182;3.160;2023-03-14T03:38:30;1.87;;;1.10;;
11921;SDS011;6021;51.182;3.160;2023-03-14T03:44:22;3.17;;;1.30;;
11921;SDS011;6021;51.182;3.160;2023-03-14T03:46:53;1.37;;;1.20;;
11921;SDS011;6021;51.182;3.160;2023-03-14T03:49:37;1.47;;;1.17;;
11921;SDS011;6021;51.182;3.160;2023-03-14T03:52:08;2.93;;;1.40;;
11921;SDS011;6021;51.182;3.160;2023-03-14T03:54:48;2.20;;;1.20;;
11921;SDS011;6021;51.182;3.160;2023-03-14T03:57:18;2.03;;;1.10;;
11921;SDS011;6021;51.182;3.160;2023-03-14T03:59:56;1.07;;;1.00;;
11921;SDS011;6021;51.182;3.160;2023-03-14T04:02:25;1.70;;;1.10;;
11921;SDS011;6021;51.182;3.160;2023-03-14T04:05:24;1.17;;;0.90;;
11921;SDS011;6021;51.182;3.160;2023-03-14T04:08:13;2.03;;;1.10;;
11921;SDS011;6021;51.182;3.160;2023-03-14T04:11:13;1.60;;;1.20;;
11921;SDS011;6021;51.182;3.160;2023-03-14T04:13:56;1.70;;;1.20;;
11921;SDS011;6021;51.182;3.160;2023-03-14T04:16:27;2.10;;;1.40;;
11921;SDS011;6021;51.182;3.160;2023-03-14T04:18:58;1.87;;;1.40;;
11921;SDS011;6021;51.182;3.160;2023-03-14T04:21:30;1.63;;;1.50;;
11921;SDS011;6021;51.182;3.160;2023-03-14T04:24:29;2.97;;;1.70;;
11921;SDS011;6021;51.182;3.160;2023-03-14T04:26:54;2.63;;;1.60;;
11921;SDS011;6021;51.182;3.160;2023-03-14T04:29:33;2.73;;;1.60;;
11921;SDS011;6021;51.182;3.160;2023-03-14T04:32:30;3.23;;;2.00;;
11921;SDS011;6021;51.182;3.160;2023-03-14T04:37:32;3.17;;;1.80;;
11921;SDS011;6021;51.182;3.160;2023-03-14T04:40:11;2.93;;;1.90;;
11921;SDS011;6021;51.182;3.160;2023-03-14T04:42:50;3.83;;;1.80;;
11921;SDS011;6021;51.182;3.160;2023-03-14T04:45:24;4.50;;;2.17;;
11921;SDS011;6021;51.182;3.160;2023-03-14T04:47:59;3.97;;;2.50;;
11921;SDS011;6021;51.182;3.160;2023-03-14T04:50:37;3.70;;;2.20;;
11921;SDS011;6021;51.182;3.160;2023-03-14T04:56:02;7.23;;;2.20;;
11921;SDS011;6021;51.182;3.160;2023-03-14T04:58:29;7.37;;;2.23;;
11921;SDS011;6021;51.182;3.160;2023-03-14T05:03:41;9.40;;;2.20;;
11921;SDS011;6021;51.182;3.160;2023-03-14T05:08:59;6.40;;;2.13;;
11921;SDS011;6021;51.182;3.160;2023-03-14T05:12:08;8.30;;;2.30;;
11921;SDS011;6021;51.182;3.160;2023-03-14T05:14:41;6.40;;;1.70;;
11921;SDS011;6021;51.182;3.160;2023-03-14T05:17:29;6.37;;;1.97;;
11921;SDS011;6021;51.182;3.160;2023-03-14T05:20:27;7.13;;;2.10;;
11921;SDS011;6021;51.182;3.160;2023-03-14T05:23:06;12.97;;;2.10;;
11921;SDS011;6021;51.182;3.160;2023-03-14T05:25:34;8.27;;;1.77;;
11921;SDS011;6021;51.182;3.160;2023-03-14T05:28:06;7.47;;;1.70;;
11921;SDS011;6021;51.182;3.160;2023-03-14T05:30:34;5.43;;;1.90;;
11921;SDS011;6021;51.182;3.160;2023-03-14T05:33:02;6.40;;;1.90;;
11921;SDS011;6021;51.182;3.160;2023-03-14T05:35:31;7.03;;;1.67;;
11921;SDS011;6021;51.182;3.160;2023-03-14T05:38:01;5.87;;;1.70;;
11921;SDS011;6021;51.182;3.160;2023-03-14T05:40:29;7.03;;;2.00;;
11921;SDS011;6021;51.182;3.160;2023-03-14T05:42:57;4.57;;;1.60;;
11921;SDS011;6021;51.182;3.160;2023-03-14T05:45:26;9.10;;;2.30;;
11921;SDS011;6021;51.182;3.160;2023-03-14T05:47:56;12.40;;;2.20;;
11921;SDS011;6021;51.182;3.160;2023-03-14T05:50:25;6.40;;;2.10;;
11921;SDS011;6021;51.182;3.160;2023-03-14T05:52:53;11.90;;;2.43;;
11921;SDS011;6021;51.182;3.160;2023-03-14T05:55:23;7.03;;;2.50;;
11921;SDS011;6021;51.182;3.160;2023-03-14T05:57:53;9.37;;;2.93;;
11921;SDS011;6021;51.182;3.160;2023-03-14T06:00:23;8.47;;;2.67;;
11921;SDS011;6021;51.182;3.160;2023-03-14T06:02:51;8.00;;;2.60;;
11921;SDS011;6021;51.182;3.160;2023-03-14T06:05:19;6.43;;;3.30;;
11921;SDS011;6021;51.182;3.160;2023-03-14T06:07:48;10.13;;;3.13;;
11921;SDS011;6021;51.182;3.160;2023-03-14T06:10:18;6.80;;;3.50;;
11921;SDS011;6021;51.182;3.160;2023-03-14T06:12:46;9.13;;;3.77;;
11921;SDS011;6021;51.182;3.160;2023-03-14T06:15:15;10.90;;;4.50;;
11921;SDS011;6021;51.182;3.160;2023-03-14T06:17:45;10.27;;;4.57;;
11921;SDS011;6021;51.182;3.160;2023-03-14T06:20:14;9.10;;;4.43;;
11921;SDS011;6021;51.182;3.160;2023-03-14T06:22:43;11.20;;;5.17;;
11921;SDS011;6021;51.182;3.160;2023-03-14T06:25:11;11.03;;;5.07;;
11921;SDS011;6021;51.182;3.160;2023-03-14T06:27:40;10.57;;;4.80;;
11921;SDS011;6021;51.182;3.160;2023-03-14T06:30:08;10.03;;;3.73;;
11921;SDS011;6021;51.182;3.160;2023-03-14T06:32:37;8.90;;;3.10;;
11921;SDS011;6021;51.182;3.160;2023-03-14T06:35:06;9.13;;;3.67;;
11921;SDS011;6021;51.182;3.160;2023-03-14T06:37:36;8.47;;;3.47;;
11921;SDS011;6021;51.182;3.160;2023-03-14T06:40:06;6.33;;;2.70;;
11921;SDS011;6021;51.182;3.160;2023-03-14T06:42:36;9.73;;;2.90;;
11921;SDS011;6021;51.182;3.160;2023-03-14T06:45:04;10.67;;;3.03;;
11921;SDS011;6021;51.182;3.160;2023-03-14T06:47:33;7.63;;;3.20;;
11921;SDS011;6021;51.182;3.160;2023-03-14T06:50:03;8.77;;;3.03;;
11921;SDS011;6021;51.182;3.160;2023-03-14T06:52:36;10.47;;;3.27;;
11921;SDS011;6021;51.182;3.160;2023-03-14T06:55:06;8.80;;;3.07;;
11921;SDS011;6021;51.182;3.160;2023-03-14T06:57:35;6.00;;;3.00;;
11921;SDS011;6021;51.182;3.160;2023-03-14T07:00:04;8.50;;;3.50;;
11921;SDS011;6021;51.182;3.160;2023-03-14T07:02:33;5.62;;;3.15;;
11921;SDS011;6021;51.182;3.160;2023-03-14T07:05:01;4.80;;;3.00;;
11921;SDS011;6021;51.182;3.160;2023-03-14T07:07:30;5.70;;;3.20;;
11921;SDS011;6021;51.182;3.160;2023-03-14T07:09:58;7.90;;;3.20;;
11921;SDS011;6021;51.182;3.160;2023-03-14T07:12:26;5.67;;;3.50;;
11921;SDS011;6021;51.182;3.160;2023-03-14T07:14:55;6.87;;;3.33;;
11921;SDS011;6021;51.182;3.160;2023-03-14T07:17:23;8.67;;;3.60;;
11921;SDS011;6021;51.182;3.160;2023-03-14T07:19:53;7.00;;;3.50;;
11921;SDS011;6021;51.182;3.160;2023-03-14T07:22:23;7.70;;;3.77;;
11921;SDS011;6021;51.182;3.160;2023-03-14T07:24:52;7.30;;;3.60;;
11921;SDS011;6021;51.182;3.160;2023-03-14T07:27:20;8.50;;;3.60;;
11921;SDS011;6021;51.182;3.160;2023-03-14T07:29:49;10.27;;;4.53;;
11921;SDS011;6021;51.182;3.160;2023-03-14T07:32:17;7.77;;;4.80;;
11921;SDS011;6021;51.182;3.160;2023-03-14T07:34:45;9.93;;;5.10;;
11921;SDS011;6021;51.182;3.160;2023-03-14T07:37:14;7.73;;;5.03;;
11921;SDS011;6021;51.182;3.160;2023-03-14T07:39:42;8.90;;;5.03;;
11921;SDS011;6021;51.182;3.160;2023-03-14T07:42:11;6.23;;;4.27;;
11921;SDS011;6021;51.182;3.160;2023-03-14T07:44:39;6.97;;;4.43;;
11921;SDS011;6021;51.182;3.160;2023-03-14T07:47:08;6.37;;;4.40;;
11921;SDS011;6021;51.182;3.160;2023-03-14T07:49:36;8.07;;;4.77;;
11921;SDS011;6021;51.182;3.160;2023-03-14T07:52:05;7.77;;;4.40;;
11921;SDS011;6021;51.182;3.160;2023-03-14T07:54:33;8.90;;;4.20;;
11921;SDS011;6021;51.182;3.160;2023-03-14T07:57:02;10.63;;;4.60;;
11921;SDS011;6021;51.182;3.160;2023-03-14T07:59:30;6.10;;;3.70;;
11921;SDS011;6021;51.182;3.160;2023-03-14T08:01:58;8.60;;;3.50;;
11921;SDS011;6021;51.182;3.160;2023-03-14T08:04:27;9.43;;;4.03;;
11921;SDS011;6021;51.182;3.160;2023-03-14T08:06:55;11.33;;;4.30;;
11921;SDS011;6021;51.182;3.160;2023-03-14T08:09:24;11.83;;;3.97;;
11921;SDS011;6021;51.182;3.160;2023-03-14T08:11:52;13.93;;;4.10;;
11921;SDS011;6021;51.182;3.160;2023-03-14T08:14:20;11.93;;;4.00;;
11921;SDS011;6021;51.182;3.160;2023-03-14T08:16:50;13.90;;;4.07;;
11921;SDS011;6021;51.182;3.160;2023-03-14T08:19:19;13.97;;;3.93;;
11921;SDS011;6021;51.182;3.160;2023-03-14T08:21:48;13.03;;;4.60;;
11921;SDS011;6021;51.182;3.160;2023-03-14T08:24:17;14.73;;;4.20;;
11921;SDS011;6021;51.182;3.160;2023-03-14T08:26:45;11.90;;;3.97;;
11921;SDS011;6021;51.182;3.160;2023-03-14T08:29:14;13.30;;;3.80;;
11921;SDS011;6021;51.182;3.160;2023-03-14T08:31:44;11.43;;;4.10;;
11921;SDS011;6021;51.182;3.160;2023-03-14T08:34:12;10.83;;;3.40;;
11921;SDS011;6021;51.182;3.160;2023-03-14T08:36:42;11.83;;;3.70;;
11921;SDS011;6021;51.182;3.160;2023-03-14T08:39:10;9.77;;;3.20;;
11921;SDS011;6021;51.182;3.160;2023-03-14T08:41:39;8.17;;;3.43;;
11921;SDS011;6021;51.182;3.160;2023-03-14T08:44:09;13.63;;;3.87;;
11921;SDS011;6021;51.182;3.160;2023-03-14T08:46:38;10.97;;;3.33;;
11921;SDS011;6021;51.182;3.160;2023-03-14T08:49:07;13.13;;;3.37;;
11921;SDS011;6021;51.182;3.160;2023-03-14T08:51:36;9.90;;;3.33;;
11921;SDS011;6021;51.182;3.160;2023-03-14T08:54:05;12.67;;;3.03;;
11921;SDS011;6021;51.182;3.160;2023-03-14T08:56:35;9.20;;;2.90;;
11921;SDS011;6021;51.182;3.160;2023-03-14T08:59:05;9.40;;;2.93;;
11921;SDS011;6021;51.182;3.160;2023-03-14T09:01:34;10.13;;;2.57;;
11921;SDS011;6021;51.182;3.160;2023-03-14T09:04:02;8.00;;;2.90;;
11921;SDS011;6021;51.182;3.160;2023-03-14T09:06:31;6.97;;;2.10;;
11921;SDS011;6021;51.182;3.160;2023-03-14T09:09:00;6.33;;;2.03;;
11921;SDS011;6021;51.182;3.160;2023-03-14T09:11:28;6.70;;;2.50;;
11921;SDS011;6021;51.182;3.160;2023-03-14T09:13:57;7.00;;;2.20;;
11921;SDS011;6021;51.182;3.160;2023-03-14T09:16:25;9.67;;;2.50;;
11921;SDS011;6021;51.182;3.160;2023-03-14T09:18:54;8.83;;;2.37;;
11921;SDS011;6021;51.182;3.160;2023-03-14T09:21:24;11.57;;;2.73;;
11921;SDS011;6021;51.182;3.160;2023-03-14T09:23:53;5.73;;;1.90;;
11921;SDS011;6021;51.182;3.160;2023-03-14T09:26:22;7.60;;;2.10;;
11921;SDS011;6021;51.182;3.160;2023-03-14T09:28:50;5.10;;;1.80;;
11921;SDS011;6021;51.182;3.160;2023-03-14T09:31:18;9.67;;;2.73;;
11921;SDS011;6021;51.182;3.160;2023-03-14T09:33:49;10.53;;;2.23;;
11921;SDS011;6021;51.182;3.160;2023-03-14T09:36:17;10.97;;;2.57;;
11921;SDS011;6021;51.182;3.160;2023-03-14T09:38:45;8.17;;;2.30;;
11921;SDS011;6021;51.182;3.160;2023-03-14T09:41:30;8.77;;;2.40;;
11921;SDS011;6021;51.182;3.160;2023-03-14T09:44:05;6.73;;;2.10;;
11921;SDS011;6021;51.182;3.160;2023-03-14T09:46:35;7.57;;;2.20;;
11921;SDS011;6021;51.182;3.160;2023-03-14T09:49:09;7.80;;;2.10;;
11921;SDS011;6021;51.182;3.160;2023-03-14T09:51:37;6.47;;;2.07;;
11921;SDS011;6021;51.182;3.160;2023-03-14T09:54:08;5.87;;;1.90;;
11921;SDS011;6021;51.182;3.160;2023-03-14T09:56:38;8.77;;;2.07;;
11921;SDS011;6021;51.182;3.160;2023-03-14T09:59:08;7.60;;;2.27;;
11921;SDS011;6021;51.182;3.160;2023-03-14T10:01:39;9.07;;;2.63;;
11921;SDS011;6021;51.182;3.160;2023-03-14T10:04:13;10.70;;;2.70;;
11921;SDS011;6021;51.182;3.160;2023-03-14T10:06:42;4.20;;;1.60;;
11921;SDS011;6021;51.182;3.160;2023-03-14T10:09:13;6.47;;;1.90;;
11921;SDS011;6021;51.182;3.160;2023-03-14T10:11:42;3.77;;;1.60;;
11921;SDS011;6021;51.182;3.160;2023-03-14T10:14:11;6.60;;;1.80;;
11921;SDS011;6021;51.182;3.160;2023-03-14T10:16:41;5.80;;;1.90;;
11921;SDS011;6021;51.182;3.160;2023-03-14T10:19:11;7.67;;;1.93;;
11921;SDS011;6021;51.182;3.160;2023-03-14T10:21:43;7.87;;;1.90;;
11921;SDS011;6021;51.182;3.160;2023-03-14T10:26:54;17.33;;;3.30;;
11921;SDS011;6021;51.182;3.160;2023-03-14T10:29:31;7.77;;;2.53;;
11921;SDS011;6021;51.182;3.160;2023-03-14T10:32:02;6.93;;;1.70;;
11921;SDS011;6021;51.182;3.160;2023-03-14T10:34:38;12.03;;;2.47;;
11921;SDS011;6021;51.182;3.160;2023-03-14T10:37:07;11.93;;;2.30;;
11921;SDS011;6021;51.182;3.160;2023-03-14T10:39:48;8.03;;;2.13;;
11921;SDS011;6021;51.182;3.160;2023-03-14T10:42:21;10.37;;;2.13;;
11921;SDS011;6021;51.182;3.160;2023-03-14T10:44:57;5.87;;;1.50;;
11921;SDS011;6021;51.182;3.160;2023-03-14T10:47:27;8.20;;;1.83;;
11921;SDS011;6021;51.182;3.160;2023-03-14T10:49:56;6.43;;;1.70;;
11921;SDS011;6021;51.182;3.160;2023-03-14T10:52:27;6.17;;;2.00;;
11921;SDS011;6021;51.182;3.160;2023-03-14T10:54:59;7.03;;;2.27;;
11921;SDS011;6021;51.182;3.160;2023-03-14T10:57:29;8.03;;;2.37;;
11921;SDS011;6021;51.182;3.160;2023-03-14T10:59:57;7.93;;;2.10;;
11921;SDS011;6021;51.182;3.160;2023-03-14T11:05:21;14.33;;;3.27;;
11921;SDS011;6021;51.182;3.160;2023-03-14T11:08:06;18.83;;;3.60;;
11921;SDS011;6021;51.182;3.160;2023-03-14T11:10:36;17.87;;;3.10;;
11921;SDS011;6021;51.182;3.160;2023-03-14T11:13:24;16.40;;;3.13;;
11921;SDS011;6021;51.182;3.160;2023-03-14T11:15:56;10.13;;;3.00;;
11921;SDS011;6021;51.182;3.160;2023-03-14T11:21:29;13.63;;;2.70;;
11921;SDS011;6021;51.182;3.160;2023-03-14T11:32:26;10.67;;;2.70;;
11921;SDS011;6021;51.182;3.160;2023-03-14T11:35:02;12.50;;;2.70;;
11921;SDS011;6021;51.182;3.160;2023-03-14T11:37:44;14.13;;;3.07;;
11921;SDS011;6021;51.182;3.160;2023-03-14T11:40:27;10.67;;;3.10;;
11921;SDS011;6021;51.182;3.160;2023-03-14T11:43:00;13.20;;;2.63;;
11921;SDS011;6021;51.182;3.160;2023-03-14T11:45:47;18.93;;;3.50;;
11921;SDS011;6021;51.182;3.160;2023-03-14T11:51:15;17.70;;;3.40;;
11921;SDS011;6021;51.182;3.160;2023-03-14T11:53:52;15.10;;;3.23;;
11921;SDS011;6021;51.182;3.160;2023-03-14T11:59:12;18.77;;;3.37;;
11921;SDS011;6021;51.182;3.160;2023-03-14T12:01:54;20.03;;;3.70;;
11921;SDS011;6021;51.182;3.160;2023-03-14T12:07:05;21.67;;;3.77;;
11921;SDS011;6021;51.182;3.160;2023-03-14T12:09:38;23.40;;;4.00;;
11921;SDS011;6021;51.182;3.160;2023-03-14T12:12:06;18.33;;;3.30;;
11921;SDS011;6021;51.182;3.160;2023-03-14T12:14:38;13.30;;;3.07;;
11921;SDS011;6021;51.182;3.160;2023-03-14T12:19:45;15.47;;;3.50;;
11921;SDS011;6021;51.182;3.160;2023-03-14T12:22:28;14.87;;;3.10;;
11921;SDS011;6021;51.182;3.160;2023-03-14T12:25:03;18.00;;;3.60;;
11921;SDS011;6021;51.182;3.160;2023-03-14T12:27:48;15.43;;;2.97;;
11921;SDS011;6021;51.182;3.160;2023-03-14T12:30:36;15.90;;;2.93;;
11921;SDS011;6021;51.182;3.160;2023-03-14T12:35:52;12.97;;;2.20;;
11921;SDS011;6021;51.182;3.160;2023-03-14T12:43:55;9.10;;;2.50;;
11921;SDS011;6021;51.182;3.160;2023-03-14T12:46:26;12.30;;;2.97;;
11921;SDS011;6021;51.182;3.160;2023-03-14T12:51:34;12.93;;;2.90;;
11921;SDS011;6021;51.182;3.160;2023-03-14T12:54:08;14.53;;;2.73;;
11921;SDS011;6021;51.182;3.160;2023-03-14T12:56:53;11.27;;;2.40;;
11921;SDS011;6021;51.182;3.160;2023-03-14T13:02:23;12.23;;;2.80;;
11921;SDS011;6021;51.182;3.160;2023-03-14T13:13:07;14.27;;;2.93;;
11921;SDS011;6021;51.182;3.160;2023-03-14T13:15:57;16.43;;;2.80;;
11921;SDS011;6021;51.182;3.160;2023-03-14T13:18:36;11.70;;;3.07;;
11921;SDS011;6021;51.182;3.160;2023-03-14T13:23:56;12.93;;;2.87;;
11921;SDS011;6021;51.182;3.160;2023-03-14T13:26:35;10.93;;;2.30;;
11921;SDS011;6021;51.182;3.160;2023-03-14T13:29:37;10.57;;;2.23;;
11921;SDS011;6021;51.182;3.160;2023-03-14T13:31:53;12.97;;;2.20;;
11921;SDS011;6021;51.182;3.160;2023-03-14T13:34:26;11.37;;;2.40;;
11921;SDS011;6021;51.182;3.160;2023-03-14T13:36:56;12.97;;;3.10;;
11921;SDS011;6021;51.182;3.160;2023-03-14T13:39:25;10.77;;;3.17;;
11921;SDS011;6021;51.182;3.160;2023-03-14T13:41:59;3.13;;;1.30;;
11921;SDS011;6021;51.182;3.160;2023-03-14T13:44:33;2.80;;;1.13;;
11921;SDS011;6021;51.182;3.160;2023-03-14T13:47:04;3.50;;;1.17;;
11921;SDS011;6021;51.182;3.160;2023-03-14T13:49:34;2.73;;;1.20;;
11921;SDS011;6021;51.182;3.160;2023-03-14T13:52:21;2.80;;;0.93;;
11921;SDS011;6021;51.182;3.160;2023-03-14T13:54:54;3.60;;;1.20;;
11921;SDS011;6021;51.182;3.160;2023-03-14T13:57:23;12.87;;;4.47;;
11921;SDS011;6021;51.182;3.160;2023-03-14T14:00:02;3.03;;;1.47;;
11921;SDS011;6021;51.182;3.160;2023-03-14T14:02:35;6.20;;;1.40;;
11921;SDS011;6021;51.182;3.160;2023-03-14T14:05:04;4.17;;;1.50;;
11921;SDS011;6021;51.182;3.160;2023-03-14T14:07:33;3.27;;;1.30;;
11921;SDS011;6021;51.182;3.160;2023-03-14T14:10:01;3.63;;;1.20;;
11921;SDS011;6021;51.182;3.160;2023-03-14T14:12:31;3.77;;;1.60;;
11921;SDS011;6021;51.182;3.160;2023-03-14T14:15:16;5.50;;;1.53;;
11921;SDS011;6021;51.182;3.160;2023-03-14T14:17:51;4.17;;;1.40;;
11921;SDS011;6021;51.182;3.160;2023-03-14T14:23:09;4.30;;;1.40;;
11921;SDS011;6021;51.182;3.160;2023-03-14T14:25:34;4.73;;;1.73;;
11921;SDS011;6021;51.182;3.160;2023-03-14T14:28:16;6.33;;;1.93;;
11921;SDS011;6021;51.182;3.160;2023-03-14T14:31:04;7.23;;;1.90;;
11921;SDS011;6021;51.182;3.160;2023-03-14T14:33:55;5.43;;;1.73;;
11921;SDS011;6021;51.182;3.160;2023-03-14T14:36:28;10.87;;;2.57;;
11921;SDS011;6021;51.182;3.160;2023-03-14T14:39:05;8.67;;;2.20;;
11921;SDS011;6021;51.182;3.160;2023-03-14T14:41:45;11.23;;;2.40;;
11921;SDS011;6021;51.182;3.160;2023-03-14T14:44:17;8.77;;;2.40;;
11921;SDS011;6021;51.182;3.160;2023-03-14T14:46:50;8.50;;;1.87;;
11921;SDS011;6021;51.182;3.160;2023-03-14T14:49:19;9.77;;;1.90;;
11921;SDS011;6021;51.182;3.160;2023-03-14T14:51:48;7.63;;;2.10;;
11921;SDS011;6021;51.182;3.160;2023-03-14T14:54:19;7.43;;;2.23;;
11921;SDS011;6021;51.182;3.160;2023-03-14T14:56:51;9.30;;;2.10;;
11921;SDS011;6021;51.182;3.160;2023-03-14T14:59:24;9.33;;;2.00;;
11921;SDS011;6021;51.182;3.160;2023-03-14T15:01:56;10.40;;;2.30;;
11921;SDS011;6021;51.182;3.160;2023-03-14T15:04:26;9.13;;;2.47;;
11921;SDS011;6021;51.182;3.160;2023-03-14T15:06:56;9.30;;;2.70;;
11921;SDS011;6021;51.182;3.160;2023-03-14T15:09:24;10.17;;;2.70;;
11921;SDS011;6021;51.182;3.160;2023-03-14T15:11:53;8.03;;;1.87;;
11921;SDS011;6021;51.182;3.160;2023-03-14T15:14:21;10.13;;;2.17;;
11921;SDS011;6021;51.182;3.160;2023-03-14T15:16:50;8.17;;;2.10;;
11921;SDS011;6021;51.182;3.160;2023-03-14T15:19:20;9.50;;;1.83;;
11921;SDS011;6021;51.182;3.160;2023-03-14T15:21:51;6.33;;;2.13;;
11921;SDS011;6021;51.182;3.160;2023-03-14T15:24:20;5.90;;;1.87;;
11921;SDS011;6021;51.182;3.160;2023-03-14T15:26:49;6.33;;;2.10;;
11921;SDS011;6021;51.182;3.160;2023-03-14T15:29:18;9.17;;;2.00;;
11921;SDS011;6021;51.182;3.160;2023-03-14T15:31:46;7.40;;;1.90;;
11921;SDS011;6021;51.182;3.160;2023-03-14T15:34:15;10.27;;;2.67;;
11921;SDS011;6021;51.182;3.160;2023-03-14T15:36:43;12.40;;;2.43;;
11921;SDS011;6021;51.182;3.160;2023-03-14T15:39:12;7.77;;;1.70;;
11921;SDS011;6021;51.182;3.160;2023-03-14T15:41:40;5.73;;;1.80;;
11921;SDS011;6021;51.182;3.160;2023-03-14T15:44:08;8.27;;;2.00;;
11921;SDS011;6021;51.182;3.160;2023-03-14T15:46:37;8.83;;;2.20;;
11921;SDS011;6021;51.182;3.160;2023-03-14T15:49:05;10.33;;;2.23;;
11921;SDS011;6021;51.182;3.160;2023-03-14T15:51:35;10.20;;;2.23;;
11921;SDS011;6021;51.182;3.160;2023-03-14T15:54:03;8.07;;;2.20;;
11921;SDS011;6021;51.182;3.160;2023-03-14T15:56:32;11.10;;;2.60;;
11921;SDS011;6021;51.182;3.160;2023-03-14T15:59:00;9.90;;;2.40;;
11921;SDS011;6021;51.182;3.160;2023-03-14T16:01:28;9.27;;;2.90;;
11921;SDS011;6021;51.182;3.160;2023-03-14T16:03:57;10.70;;;2.47;;
11921;SDS011;6021;51.182;3.160;2023-03-14T16:06:25;8.23;;;2.30;;
11921;SDS011;6021;51.182;3.160;2023-03-14T16:08:53;11.37;;;2.40;;
11921;SDS011;6021;51.182;3.160;2023-03-14T16:11:22;8.63;;;2.50;;
11921;SDS011;6021;51.182;3.160;2023-03-14T16:13:50;7.03;;;1.90;;
11921;SDS011;6021;51.182;3.160;2023-03-14T16:16:19;8.00;;;1.90;;
11921;SDS011;6021;51.182;3.160;2023-03-14T16:18:47;9.87;;;2.53;;
11921;SDS011;6021;51.182;3.160;2023-03-14T16:21:16;10.43;;;2.70;;
11921;SDS011;6021;51.182;3.160;2023-03-14T16:23:46;8.50;;;2.60;;
11921;SDS011;6021;51.182;3.160;2023-03-14T16:26:16;10.20;;;2.40;;
11921;SDS011;6021;51.182;3.160;2023-03-14T16:28:45;8.83;;;2.10;;
11921;SDS011;6021;51.182;3.160;2023-03-14T16:31:15;9.07;;;2.63;;
11921;SDS011;6021;51.182;3.160;2023-03-14T16:33:50;9.93;;;2.57;;
11921;SDS011;6021;51.182;3.160;2023-03-14T16:36:19;14.37;;;2.53;;
11921;SDS011;6021;51.182;3.160;2023-03-14T16:38:47;12.13;;;2.60;;
11921;SDS011;6021;51.182;3.160;2023-03-14T16:41:17;10.93;;;2.83;;
11921;SDS011;6021;51.182;3.160;2023-03-14T16:43:46;11.33;;;2.80;;
11921;SDS011;6021;51.182;3.160;2023-03-14T16:46:20;12.30;;;2.70;;
11921;SDS011;6021;51.182;3.160;2023-03-14T16:48:48;11.90;;;2.70;;
11921;SDS011;6021;51.182;3.160;2023-03-14T16:51:17;14.33;;;3.10;;
11921;SDS011;6021;51.182;3.160;2023-03-14T16:53:45;12.97;;;2.90;;